Time;durP1;ratioP1;P1;durP2;ratioP2;P2;SDS_P1;SDS_P2;PMS_P1;PMS_P2;Temp;Humidity;BMP_temperature;BMP_pressure;BME280_temperature;BME280_humidity;BME280_pressure;Samples;Min_cycle;Max_cycle;Signal;HPM_P1;HPM_P2
2020/12/03 00:01:08;;;;;;;11.43;6.83;;;;;;;-2.66;74.85;102251.54;1807531;78;22324;-39
2020/12/03 00:03:55;;;;;;;11.53;6.00;;;;;;;-2.63;74.66;102251.74;1834093;78;21168;-40
2020/12/03 00:06:28;;;;;;;11.95;6.65;;;;;;;-2.62;74.55;102250.03;1807314;78;21108;-40
2020/12/03 00:09:02;;;;;;;9.30;6.10;;;;;;;-2.63;74.52;102244.44;1817658;79;21156;-39
2020/12/03 00:11:33;;;;;;;15.13;6.83;;;;;;;-2.65;74.52;102235.75;1794416;80;21595;-40
2020/12/03 00:14:01;;;;;;;13.95;6.90;;;;;;;-2.69;74.50;102242.35;1817703;79;21176;-38
2020/12/03 00:16:35;;;;;;;12.47;7.55;;;;;;;-2.70;74.51;102248.31;1817832;79;21173;-39
2020/12/03 00:19:05;;;;;;;13.03;5.72;;;;;;;-2.70;74.53;102256.01;1793794;79;21121;-39
2020/12/03 00:21:45;;;;;;;9.00;5.95;;;;;;;-2.69;74.54;102248.77;1817890;79;21318;-40
2020/12/03 00:24:16;;;;;;;12.58;6.28;;;;;;;-2.70;74.46;102255.12;1824841;78;21140;-41
2020/12/03 00:26:44;;;;;;;10.70;6.33;;;;;;;-2.72;74.48;102240.02;1794405;79;21289;-39
2020/12/03 00:29:12;;;;;;;9.63;6.17;;;;;;;-2.72;74.48;102240.02;1826820;78;21156;-38
2020/12/03 00:31:43;;;;;;;10.95;5.95;;;;;;;-2.71;74.17;102247.81;1794410;80;21191;-39
2020/12/03 00:34:11;;;;;;;9.38;6.35;;;;;;;-2.71;74.14;102241.40;1805573;78;21203;-39
2020/12/03 00:36:39;;;;;;;15.40;6.53;;;;;;;-2.70;74.07;102241.00;1825868;78;21148;-39
2020/12/03 00:39:11;;;;;;;9.60;6.42;;;;;;;-2.69;73.96;102238.93;1826761;78;21168;-39
2020/12/03 00:41:39;;;;;;;11.57;6.78;;;;;;;-2.72;73.80;102231.03;1826789;78;21176;-39
2020/12/03 00:44:07;;;;;;;12.67;7.10;;;;;;;-2.74;73.83;102228.75;1826841;78;21188;-38
2020/12/03 00:46:35;;;;;;;9.60;5.80;;;;;;;-2.76;73.78;102231.64;1826232;78;21191;-39
2020/12/03 00:49:03;;;;;;;13.50;6.47;;;;;;;-2.79;73.81;102236.58;1851005;77;21171;-39
2020/12/03 00:51:32;;;;;;;8.55;5.85;;;;;;;-2.81;73.73;102226.20;1826785;78;21674;-39
2020/12/03 00:54:01;;;;;;;9.65;6.45;;;;;;;-2.83;73.67;102217.55;1826839;78;21279;-40
2020/12/03 00:56:29;;;;;;;9.77;6.40;;;;;;;-2.85;73.57;102235.41;1826674;78;21615;-40
2020/12/03 00:58:57;;;;;;;13.10;7.07;;;;;;;-2.88;73.59;102236.49;1826158;78;21140;-40
2020/12/03 01:01:25;;;;;;;9.63;6.27;;;;;;;-2.88;73.60;102236.49;1826611;78;21169;-40
2020/12/03 01:03:54;;;;;;;14.27;6.70;;;;;;;-2.89;73.51;102235.14;1826639;78;21156;-39
2020/12/03 01:06:22;;;;;;;11.53;6.70;;;;;;;-2.92;73.50;102232.37;1829794;77;21133;-39
2020/12/03 01:08:50;;;;;;;8.90;6.00;;;;;;;-2.92;73.61;102227.23;1794470;80;21322;-37
2020/12/03 01:11:21;;;;;;;8.15;5.42;;;;;;;-2.92;73.58;102231.98;1826741;78;21219;-39
2020/12/03 01:13:50;;;;;;;13.43;6.50;;;;;;;-2.92;73.61;102234.94;1794368;80;21180;-39
2020/12/03 01:16:19;;;;;;;11.22;6.10;;;;;;;-2.93;73.50;102234.05;1826587;78;21176;-39
2020/12/03 01:18:48;;;;;;;12.70;7.58;;;;;;;-2.94;73.53;102241.64;1794375;79;21337;-39
2020/12/03 01:21:22;;;;;;;9.13;6.10;;;;;;;-2.94;73.67;102233.94;1806522;78;21302;-39
2020/12/03 01:23:51;;;;;;;11.65;7.70;;;;;;;-2.93;73.81;102231.88;1826832;78;21208;-40
2020/12/03 01:26:19;;;;;;;11.28;6.30;;;;;;;-2.94;73.90;102232.66;1826615;78;21115;-39
2020/12/03 01:28:48;;;;;;;10.68;6.00;;;;;;;-2.94;74.01;102225.85;1826664;78;21184;-39
2020/12/03 01:31:16;;;;;;;10.65;6.58;;;;;;;-2.94;74.02;102230.98;1826446;78;21156;-42
2020/12/03 01:33:44;;;;;;;10.27;6.67;;;;;;;-2.94;74.01;102229.70;1826811;78;21148;-39
2020/12/03 01:36:13;;;;;;;12.18;7.20;;;;;;;-2.94;73.97;102228.81;1826525;78;21265;-39
2020/12/03 01:38:44;;;;;;;11.33;5.63;;;;;;;-2.96;73.96;102224.00;1826895;78;21109;-38
2020/12/03 01:41:12;;;;;;;10.48;6.85;;;;;;;-2.97;74.03;102220.94;1826969;78;21137;-40
2020/12/03 01:43:42;;;;;;;12.40;6.47;;;;;;;-2.98;74.09;102229.03;1826535;78;21153;-38
2020/12/03 01:46:10;;;;;;;10.98;6.28;;;;;;;-2.98;74.11;102226.47;1826726;78;21611;-40
2020/12/03 01:48:58;;;;;;;12.00;6.17;;;;;;;-2.98;74.06;102222.62;1826550;78;21259;-39
2020/12/03 01:51:34;;;;;;;13.05;5.78;;;;;;;-2.99;74.02;102223.80;1826502;78;21128;-39
2020/12/03 01:54:07;;;;;;;11.10;6.10;;;;;;;-3.00;73.94;102222.91;1826594;78;21192;-37
2020/12/03 01:56:55;;;;;;;12.80;6.37;;;;;;;-3.01;73.97;102217.67;1826657;78;21180;-37
2020/12/03 01:59:26;;;;;;;11.27;6.03;;;;;;;-3.02;73.89;102208.23;1826599;78;21268;-38
2020/12/03 02:01:56;;;;;;;11.43;7.17;;;;;;;-3.04;73.88;102215.83;1826755;78;21310;-39
2020/12/03 02:04:24;;;;;;;12.30;6.80;;;;;;;-3.05;73.92;102211.88;1826637;78;21132;-37
2020/12/03 02:07:02;;;;;;;12.67;6.57;;;;;;;-3.04;73.97;102217.50;1826824;78;21144;-39
2020/12/03 02:09:30;;;;;;;13.03;6.85;;;;;;;-3.05;73.95;102211.48;1826921;78;21353;-40
2020/12/03 02:12:00;;;;;;;11.07;6.17;;;;;;;-3.06;74.02;102216.12;1826851;78;21180;-39
2020/12/03 02:14:29;;;;;;;11.55;6.05;;;;;;;-3.07;74.11;102219.47;1826607;78;21144;-40
2020/12/03 02:16:58;;;;;;;10.20;6.08;;;;;;;-3.07;74.13;102219.86;1826569;78;21180;-40
2020/12/03 02:19:29;;;;;;;12.13;6.55;;;;;;;-3.07;74.20;102216.02;1826833;78;21143;-39
2020/12/03 02:22:03;;;;;;;12.25;6.90;;;;;;;-3.08;74.22;102216.80;1826954;78;21160;-39
2020/12/03 02:26:50;;;;;;;13.22;6.67;;;;;;;-3.06;74.36;102210.09;1916307;74;27926;-38
2020/12/03 02:29:19;;;;;;;10.40;6.60;;;;;;;-3.13;74.40;102226.78;1887271;75;21266;-39
2020/12/03 02:31:48;;;;;;;14.00;6.90;;;;;;;-3.13;74.47;102224.61;1827352;78;21329;-40
2020/12/03 02:34:16;;;;;;;12.18;6.30;;;;;;;-3.14;74.54;102218.98;1861178;77;21168;-39
2020/12/03 02:36:44;;;;;;;13.43;6.43;;;;;;;-3.15;74.66;102216.81;1827426;78;21152;-49
2020/12/03 02:39:12;;;;;;;13.87;7.47;;;;;;;-3.15;74.80;102219.38;1828396;77;21278;-38
2020/12/03 02:41:40;;;;;;;14.37;7.10;;;;;;;-3.13;74.94;102211.78;1827492;78;21163;-41
2020/12/03 02:44:08;;;;;;;13.40;6.97;;;;;;;-3.12;75.04;102209.33;1861245;77;21192;-40
2020/12/03 02:46:37;;;;;;;15.20;7.05;;;;;;;-3.12;75.01;102211.89;1827327;78;21159;-39
2020/12/03 02:49:05;;;;;;;12.83;7.10;;;;;;;-3.12;75.07;102216.13;1861062;77;21152;-37
2020/12/03 02:51:33;;;;;;;11.67;6.33;;;;;;;-3.13;75.16;102214.35;1827584;78;21214;-39
2020/12/03 02:54:01;;;;;;;10.63;6.40;;;;;;;-3.12;75.19;102213.56;1861026;77;21155;-39
2020/12/03 02:56:29;;;;;;;12.20;7.00;;;;;;;-3.12;75.29;102204.20;1827302;78;21140;-37
2020/12/03 02:58:58;;;;;;;11.93;6.57;;;;;;;-3.12;75.39;102218.30;1861089;77;21160;-39
2020/12/03 03:01:26;;;;;;;9.25;5.67;;;;;;;-3.10;75.40;102211.99;1827273;78;21270;-40
2020/12/03 03:03:54;;;;;;;11.93;6.25;;;;;;;-3.11;75.41;102216.23;1861034;77;21155;-39
2020/12/03 03:06:22;;;;;;;12.40;6.72;;;;;;;-3.15;75.30;102216.81;1827286;78;21156;-40
2020/12/03 03:08:50;;;;;;;10.05;6.40;;;;;;;-3.20;75.33;102213.08;1860925;77;21192;-39
2020/12/03 03:11:20;;;;;;;9.40;6.43;;;;;;;-3.23;75.43;102220.20;1860995;77;21393;-39
2020/12/03 03:13:48;;;;;;;12.17;6.43;;;;;;;-3.24;75.54;102216.25;1795588;78;21151;-39
2020/12/03 03:16:16;;;;;;;10.27;6.87;;;;;;;-3.27;75.60;102215.66;1827272;78;21167;-39
2020/12/03 03:18:45;;;;;;;9.70;6.30;;;;;;;-3.29;75.68;102213.41;1827381;78;21176;-39
2020/12/03 03:21:13;;;;;;;16.67;7.20;;;;;;;-3.31;75.79;102216.27;1827191;78;21258;-39
2020/12/03 03:23:41;;;;;;;11.07;6.53;;;;;;;-3.32;75.88;102214.88;1827237;78;21156;-38
2020/12/03 03:26:09;;;;;;;8.55;5.85;;;;;;;-3.33;75.98;102219.51;1827173;78;21314;-39
2020/12/03 03:28:38;;;;;;;11.05;6.55;;;;;;;-3.34;76.00;102211.32;1827585;78;21578;-40
2020/12/03 03:31:07;;;;;;;10.50;5.97;;;;;;;-3.37;76.09;102218.44;1827444;78;21325;-39
2020/12/03 03:33:35;;;;;;;10.87;6.50;;;;;;;-3.38;76.18;102228.20;1827535;78;21175;-38
2020/12/03 03:36:04;;;;;;;10.90;6.70;;;;;;;-3.40;76.27;102222.47;1827090;78;21278;-38
2020/12/03 03:38:32;;;;;;;12.37;6.90;;;;;;;-3.41;76.39;102224.14;1826703;78;21144;-39
2020/12/03 03:41:00;;;;;;;13.33;6.90;;;;;;;-3.43;76.44;102228.31;1826658;78;21314;-39
2020/12/03 03:43:29;;;;;;;15.50;7.67;;;;;;;-3.43;76.53;102229.98;1826673;78;21152;-38
2020/12/03 03:45:57;;;;;;;9.23;5.97;;;;;;;-3.44;76.55;102226.53;1826761;78;21618;-41
2020/12/03 03:48:25;;;;;;;12.97;6.87;;;;;;;-3.46;76.62;102223.36;1826689;78;21191;-42
2020/12/03 03:50:54;;;;;;;8.37;6.00;;;;;;;-3.49;76.68;102225.36;1826858;78;21191;-40
2020/12/03 03:53:22;;;;;;;14.27;7.07;;;;;;;-3.51;76.80;102221.80;1826647;78;21148;-40
2020/12/03 03:55:50;;;;;;;15.90;7.30;;;;;;;-3.50;76.85;102229.09;1826455;78;21206;-40
2020/12/03 03:58:19;;;;;;;15.90;7.03;;;;;;;-3.52;76.88;102228.09;1792049;78;21108;-40
2020/12/03 04:00:48;;;;;;;15.30;7.23;;;;;;;-3.53;76.94;102236.57;1814322;79;21714;-37
2020/12/03 04:03:19;;;;;;;11.80;6.30;;;;;;;-3.54;77.00;102232.27;1794416;80;21144;-39
2020/12/03 04:05:50;;;;;;;11.53;7.40;;;;;;;-3.56;77.00;102226.14;1817737;79;21153;-38
2020/12/03 04:08:18;;;;;;;15.32;7.10;;;;;;;-3.60;77.05;102231.45;1817762;79;21161;-38
2020/12/03 04:10:49;;;;;;;15.80;8.50;;;;;;;-3.62;77.11;102229.20;1817749;78;21283;-39
2020/12/03 04:13:20;;;;;;;15.60;8.40;;;;;;;-3.62;77.20;102244.58;1818246;79;21623;-40
2020/12/03 04:15:48;;;;;;;13.05;7.75;;;;;;;-3.63;77.32;102241.13;1817833;79;21173;-39
2020/12/03 04:18:18;;;;;;;14.87;7.93;;;;;;;-3.61;77.34;102250.20;1816733;79;21117;-39
2020/12/03 04:20:46;;;;;;;16.40;7.73;;;;;;;-3.61;77.42;102248.92;1803114;78;21140;-40
2020/12/03 04:23:14;;;;;;;12.93;7.97;;;;;;;-3.61;77.46;102247.64;1804472;78;21133;-40
2020/12/03 04:25:42;;;;;;;13.57;9.03;;;;;;;-3.61;77.51;102252.77;1801219;78;21159;-39
2020/12/03 04:28:11;;;;;;;16.57;9.00;;;;;;;-3.61;77.58;102249.77;1801238;80;21314;-40
2020/12/03 04:30:39;;;;;;;12.10;7.63;;;;;;;-3.59;77.64;102255.40;1801423;80;21156;-42
2020/12/03 04:33:07;;;;;;;15.53;8.07;;;;;;;-3.59;77.74;102252.45;1825893;78;21179;-41
2020/12/03 04:35:37;;;;;;;13.97;8.67;;;;;;;-3.58;77.79;102247.82;1826617;78;21175;-45
2020/12/03 04:38:07;;;;;;;12.47;7.47;;;;;;;-3.58;77.81;102253.34;1860077;77;21603;-40
2020/12/03 04:40:40;;;;;;;14.98;7.40;;;;;;;-3.57;77.92;102253.45;1824546;78;21606;-40
2020/12/03 04:43:17;;;;;;;11.25;7.67;;;;;;;-3.56;78.11;102257.78;1837620;77;21158;-40
2020/12/03 04:45:50;;;;;;;12.73;7.57;;;;;;;-3.53;78.16;102257.08;1826422;78;21171;-39
2020/12/03 04:48:52;;;;;;;14.27;6.97;;;;;;;-3.52;78.20;102253.73;1826898;78;21301;-39
2020/12/03 04:51:44;;;;;;;16.73;7.97;;;;;;;-3.50;78.23;102250.88;1793405;80;21176;-40
2020/12/03 04:54:27;;;;;;;;;;;;;;;-3.48;78.28;102250.59;1829419;78;21151;-40
2020/12/03 04:57:16;;;;;;;;;;;;;;;-3.44;78.26;102253.45;1829019;78;20500;-40
2020/12/03 05:00:06;;;;;;;16.87;7.43;;;;;;;-3.44;78.24;102253.45;1797516;79;20261;-39
2020/12/03 05:03:02;;;;;;;15.97;8.77;;;;;;;-3.44;78.24;102252.16;1790693;80;21175;-40
2020/12/03 05:05:41;;;;;;;16.53;8.23;;;;;;;-3.40;78.27;102254.52;1826252;78;21140;-40
2020/12/03 05:08:16;;;;;;;15.37;7.87;;;;;;;-3.38;78.25;102247.43;1812462;77;21156;-40
2020/12/03 05:10:46;;;;;;;12.40;7.97;;;;;;;-3.40;78.10;102246.44;1821025;77;21329;-39
2020/12/03 05:13:25;;;;;;;16.73;9.93;;;;;;;-3.44;78.13;102249.60;1821105;79;21191;-41
2020/12/03 05:16:05;;;;;;;18.63;8.97;;;;;;;-3.45;78.16;102251.66;1820860;78;21124;-41
2020/12/03 05:18:44;;;;;;;19.43;8.53;;;;;;;-3.44;78.27;102252.56;1821545;77;21579;-41
2020/12/03 05:21:15;;;;;;;17.47;9.10;;;;;;;-3.44;78.35;102255.12;1818251;79;21262;-41
2020/12/03 05:23:43;;;;;;;15.25;9.38;;;;;;;-3.43;78.44;102256.51;1795259;79;21179;-42
2020/12/03 05:26:19;;;;;;;15.17;8.90;;;;;;;-3.43;78.56;102250.49;1816730;79;21173;-38
2020/12/03 05:29:02;;;;;;;12.87;7.60;;;;;;;-3.42;78.59;102256.12;1811109;78;21322;-40
2020/12/03 05:31:41;;;;;;;14.57;7.40;;;;;;;-3.43;78.64;102251.38;1825038;77;21181;-41
2020/12/03 05:34:17;;;;;;;17.03;8.33;;;;;;;-3.43;78.72;102254.34;1814859;78;21197;-39
2020/12/03 05:36:57;;;;;;;19.73;9.07;;;;;;;-3.43;78.81;102251.38;1798392;78;21486;-40
2020/12/03 05:39:29;;;;;;;17.10;9.30;;;;;;;-3.44;78.92;102256.41;1845450;77;21199;-43
2020/12/03 05:42:04;;;;;;;15.80;9.43;;;;;;;-3.47;79.19;102259.64;1831038;77;21180;-39
2020/12/03 05:44:43;;;;;;;19.00;8.40;;;;;;;-3.49;79.46;102269.33;1792920;78;21310;-41
2020/12/03 05:47:31;;;;;;;14.83;8.67;;;;;;;-3.48;79.78;102267.26;1831811;77;21219;-41
2020/12/03 05:50:10;;;;;;;13.27;7.97;;;;;;;-3.47;79.91;102262.20;1810052;78;21155;-42
2020/12/03 05:52:38;;;;;;;15.15;9.15;;;;;;;-3.47;79.87;102263.48;1825948;77;21535;-42
2020/12/03 05:55:12;;;;;;;17.70;9.17;;;;;;;-3.50;79.76;102254.34;1819866;77;21184;-42
2020/12/03 05:57:42;;;;;;;23.00;9.27;;;;;;;-3.53;79.70;102267.33;1803970;78;21933;-41
2020/12/03 06:00:26;;;;;;;20.73;8.93;;;;;;;-3.57;79.78;102266.66;1799384;78;21164;-40
2020/12/03 06:03:21;;;;;;;16.47;8.47;;;;;;;-3.61;79.94;102265.16;1803309;78;21148;-42
2020/12/03 06:06:10;;;;;;;14.93;8.90;;;;;;;-3.61;80.18;102268.14;1801693;78;21207;-42
2020/12/03 06:09:22;;;;;;;16.23;9.87;;;;;;;-3.61;80.56;102269.00;1803885;78;21591;-47
2020/12/03 06:12:16;;;;;;;15.10;8.40;;;;;;;-3.60;80.98;102264.77;1809320;78;21195;-42
2020/12/03 06:15:35;;;;;;;15.33;8.63;;;;;;;-3.58;81.52;102273.84;1835824;77;21313;-40
2020/12/03 06:18:26;;;;;;;12.27;8.30;;;;;;;-3.56;81.98;102269.32;1808209;78;21371;-41
2020/12/03 06:21:11;;;;;;;15.60;9.43;;;;;;;-3.51;82.45;102274.34;1813181;77;21140;-41
2020/12/03 06:27:37;;;;;;;16.67;10.10;;;;;;;-3.44;83.14;102275.62;1895863;74;27921;-42
2020/12/03 06:30:21;;;;;;;16.73;10.63;;;;;;;-3.52;83.44;102280.64;1862379;75;21167;-42
2020/12/03 06:33:16;;;;;;;20.17;9.37;;;;;;;-3.55;83.95;102285.20;1869638;75;21301;-39
2020/12/03 06:35:55;;;;;;;19.50;11.33;;;;;;;-3.55;84.35;102280.07;1819650;75;21233;-41
2020/12/03 06:38:47;;;;;;;18.00;9.13;;;;;;;-3.53;84.60;102278.86;1864835;75;21282;-41
2020/12/03 06:41:38;;;;;;;19.77;9.57;;;;;;;-3.52;84.72;102279.36;1863428;75;21430;-41
2020/12/03 06:44:27;;;;;;;17.97;10.43;;;;;;;-3.52;84.80;102293.07;1873581;75;21136;-41
2020/12/03 06:47:21;;;;;;;17.62;9.43;;;;;;;-3.51;85.04;102292.68;1794118;80;21187;-42
2020/12/03 06:50:01;;;;;;;17.53;9.07;;;;;;;-3.53;85.28;102285.27;1809798;77;21124;-41
2020/12/03 06:52:43;;;;;;;18.17;10.37;;;;;;;-3.58;85.56;102285.38;1831367;77;21168;-47
2020/12/03 06:55:29;;;;;;;19.07;10.00;;;;;;;-3.62;85.88;102295.45;1805202;78;21153;-40
2020/12/03 06:58:50;;;;;;;19.13;10.43;;;;;;;-3.62;86.31;102291.98;1914960;74;22202;-41
2020/12/03 07:01:59;;;;;;;20.93;11.00;;;;;;;-3.68;86.62;102287.74;1860265;75;21124;-41
2020/12/03 07:04:51;;;;;;;19.37;11.60;;;;;;;-3.70;86.99;102285.08;1864233;75;21124;-42
2020/12/03 07:08:16;;;;;;;19.60;11.43;;;;;;;-3.70;87.42;102303.02;1872182;75;22370;-41
2020/12/03 07:11:13;;;;;;;18.30;11.17;;;;;;;-3.66;87.77;102301.13;1865012;75;21269;-42
2020/12/03 07:14:33;;;;;;;23.47;12.50;;;;;;;-3.64;88.16;102307.65;1860443;76;21581;-44
2020/12/03 07:17:47;;;;;;;21.60;11.13;;;;;;;-3.65;88.47;102308.04;1864499;75;21626;-42
2020/12/03 07:20:54;;;;;;;21.13;10.37;;;;;;;-3.62;88.84;102306.98;1864669;75;21128;-41
2020/12/03 07:23:35;;;;;;;22.97;12.43;;;;;;;-3.59;88.90;102306.27;1871898;75;21132;-41
2020/12/03 07:26:07;;;;;;;18.43;11.20;;;;;;;-3.56;89.07;102313.28;1864965;75;21158;-41
2020/12/03 07:28:37;;;;;;;18.40;11.17;;;;;;;-3.53;89.25;102309.23;1867575;75;21163;-41
2020/12/03 07:31:17;;;;;;;26.13;12.63;;;;;;;-3.51;89.40;102321.77;1864949;75;21136;-41
2020/12/03 07:33:53;;;;;;;22.83;11.57;;;;;;;-3.50;89.53;102317.53;1866812;75;21312;-41
2020/12/03 07:36:56;;;;;;;18.57;9.87;;;;;;;-3.51;89.56;102314.08;1863624;75;21210;-42
2020/12/03 07:39:29;;;;;;;21.70;12.17;;;;;;;-3.50;89.51;102316.25;1876480;75;21187;-41
2020/12/03 07:42:01;;;;;;;17.37;10.00;;;;;;;-3.49;89.59;102319.31;1864339;75;21250;-41
2020/12/03 07:44:41;;;;;;;17.73;10.50;;;;;;;-3.50;89.62;102305.60;1870663;75;21574;-42
2020/12/03 07:47:24;;;;;;;20.57;12.37;;;;;;;-3.53;89.66;102304.50;1862129;75;21171;-41
2020/12/03 07:49:53;;;;;;;20.47;12.00;;;;;;;-3.54;89.83;102310.02;1806752;78;21191;-42
2020/12/03 07:52:35;;;;;;;17.20;10.80;;;;;;;-3.52;89.96;102302.44;1828951;77;21598;-41
2020/12/03 07:55:23;;;;;;;18.70;11.73;;;;;;;-3.53;89.97;102303.22;1806978;78;21179;-41
2020/12/03 07:57:59;;;;;;;25.30;14.33;;;;;;;-3.53;90.08;102307.95;1800685;78;21144;-42
2020/12/03 08:00:48;;;;;;;24.67;13.00;;;;;;;-3.52;90.20;102303.32;1805501;78;21179;-41
2020/12/03 08:03:47;;;;;;;23.60;13.13;;;;;;;-3.49;90.31;102303.93;1817035;78;21188;-42
2020/12/03 08:06:18;;;;;;;20.67;12.90;;;;;;;-3.49;90.22;102306.49;1823152;78;21294;-42
2020/12/03 08:09:02;;;;;;;;;;;;;;;-3.47;90.35;102308.73;1809975;78;21650;-42
2020/12/03 08:11:46;;;;;;;;;;;;;;;-3.44;90.37;102298.70;1816814;78;20219;-45
2020/12/03 08:14:38;;;;;;;;;;;;;;;-3.43;90.40;102300.48;1819422;78;20323;-42
2020/12/03 08:17:18;;;;;;;;;;;;;;;-3.43;90.48;102296.25;1813633;78;20185;-41
2020/12/03 08:19:50;;;;;;;;;;;;;;;-3.39;90.53;102294.36;1815764;78;20612;-43
2020/12/03 08:22:23;;;;;;;;;;;;;;;-3.39;90.52;102284.11;1808760;78;20208;-41
2020/12/03 08:25:13;;;;;;;;;;;;;;;-3.37;90.57;102295.36;1815658;78;20198;-42
2020/12/03 08:27:43;;;;;;;;;;;;;;;-3.34;90.58;102290.80;1817481;77;20214;-42
2020/12/03 08:30:37;;;;;;;;;;;;;;;-3.30;90.66;102283.82;1811686;77;20484;-43
2020/12/03 08:33:05;;;;;;;;;;;;;;;-3.27;90.59;102287.84;1815787;77;20187;-47
2020/12/03 08:35:33;;;;;;;;;;;;;;;-3.27;90.50;102284.89;1805780;77;20292;-42
2020/12/03 08:38:03;;;;;;;;;;;;;;;-3.26;90.48;102294.36;1770604;80;20822;-42
2020/12/03 08:40:34;;;;;;;22.42;13.05;;;;;;;-3.25;90.41;102288.45;1829430;76;20588;-42
2020/12/03 08:43:08;;;;;;;19.92;12.95;;;;;;;-3.22;90.41;102286.06;1806745;78;21514;-41
2020/12/03 08:45:50;;;;;;;22.90;13.72;;;;;;;-3.20;90.36;102284.89;1829631;77;21180;-42
2020/12/03 08:48:23;;;;;;;22.13;12.30;;;;;;;-3.16;90.37;102279.19;1817708;78;21546;-41
2020/12/03 08:51:04;;;;;;;26.48;13.45;;;;;;;-3.14;90.19;102287.84;1804486;78;21183;-42
2020/12/03 08:53:34;;;;;;;17.37;12.55;;;;;;;-3.17;90.02;102285.48;1798152;78;21311;-42
2020/12/03 08:56:11;;;;;;;21.82;12.47;;;;;;;-3.19;90.02;102284.10;1799695;78;21606;-42
2020/12/03 08:58:49;;;;;;;21.45;11.53;;;;;;;-3.15;89.99;102285.20;1803015;78;21333;-41
2020/12/03 09:01:19;;;;;;;16.85;11.08;;;;;;;-3.18;89.79;102278.19;1791138;78;21337;-41
2020/12/03 09:03:47;;;;;;;23.70;12.87;;;;;;;-3.22;89.63;102275.80;1810753;78;21180;-42
2020/12/03 09:06:15;;;;;;;22.42;14.55;;;;;;;-3.23;89.63;102274.45;1796535;78;21212;-41
2020/12/03 09:08:43;;;;;;;22.17;13.08;;;;;;;-3.23;89.63;102267.65;1807010;78;21188;-41
2020/12/03 09:11:11;;;;;;;21.82;12.90;;;;;;;-3.23;89.51;102267.65;1765864;80;21183;-41
2020/12/03 09:13:40;;;;;;;23.85;13.55;;;;;;;-3.26;89.40;102255.01;1828182;77;21196;-41
2020/12/03 09:16:08;;;;;;;20.27;12.18;;;;;;;-3.27;89.38;102261.81;1797860;77;21183;-42
2020/12/03 09:18:42;;;;;;;22.82;11.78;;;;;;;-3.30;89.22;102259.07;1824070;77;21306;-44
2020/12/03 09:21:12;;;;;;;23.18;12.98;;;;;;;-3.33;89.22;102252.84;1779136;77;21215;-42
2020/12/03 09:23:46;;;;;;;22.15;13.62;;;;;;;-3.34;89.26;102258.36;1765499;77;21203;-42
2020/12/03 09:26:19;;;;;;;29.48;17.30;;;;;;;-3.39;89.20;102252.06;1826653;77;21168;-41
2020/12/03 09:28:48;;;;;;;26.62;14.20;;;;;;;-3.43;89.25;102255.23;1828094;77;21180;-42
2020/12/03 09:31:18;;;;;;;26.37;15.98;;;;;;;-3.42;89.37;102245.86;1824012;77;21310;-42
2020/12/03 09:33:47;;;;;;;23.90;15.05;;;;;;;-3.45;89.38;102250.38;1826700;77;21145;-42
2020/12/03 09:36:16;;;;;;;24.92;13.75;;;;;;;-3.47;89.43;102251.95;1809005;77;21119;-42
2020/12/03 09:38:48;;;;;;;32.90;19.42;;;;;;;-3.45;89.53;102252.95;1827362;77;21148;-41
2020/12/03 09:41:22;;;;;;;21.05;11.88;;;;;;;-3.43;89.59;102253.06;1808527;77;21092;-42
2020/12/03 09:43:55;;;;;;;;;;;;;;;-3.43;89.55;102246.65;1828426;77;21199;-42
2020/12/03 09:46:26;;;;;;;;;;;;;;;-3.46;89.45;102247.72;1830596;77;20201;-42
2020/12/03 09:48:54;;;;;;;18.00;11.40;;;;;;;-3.50;89.39;102244.08;1830911;77;20188;-41
2020/12/03 09:51:24;;;;;;;23.70;12.37;;;;;;;-3.52;89.36;102246.05;1825753;77;21642;-43
2020/12/03 09:53:52;;;;;;;38.57;20.87;;;;;;;-3.53;89.45;102240.02;1830646;77;21152;-42
2020/12/03 09:56:21;;;;;;;26.67;14.80;;;;;;;-3.50;89.43;102246.65;1822867;77;21783;-42
2020/12/03 09:58:59;;;;;;;24.05;13.30;;;;;;;-3.46;89.46;102250.28;1825075;77;21353;-42
2020/12/03 10:02:04;;;;;;;20.30;12.75;;;;;;;-3.46;89.40;102243.87;1796583;77;21305;-50
2020/12/03 10:05:08;;;;;;;14.90;9.78;;;;;;;-3.45;89.31;102230.27;1826148;77;21163;-41
2020/12/03 10:07:59;;;;;;;18.52;9.60;;;;;;;-3.46;89.08;102233.62;1794014;77;21191;-42
2020/12/03 10:11:01;;;;;;;25.73;14.37;;;;;;;-3.39;89.00;102223.86;1898365;74;22243;-42
2020/12/03 10:13:58;;;;;;;29.63;17.60;;;;;;;-3.39;89.00;102226.42;1869352;75;21308;-41
2020/12/03 10:16:28;;;;;;;29.55;17.12;;;;;;;-3.30;89.00;102226.13;1866041;75;21120;-42
2020/12/03 10:18:59;;;;;;;28.87;16.77;;;;;;;-3.26;88.82;102229.36;1867628;75;21614;-42
2020/12/03 10:21:27;;;;;;;26.47;16.13;;;;;;;-3.24;88.72;102222.27;1867594;75;21587;-42
2020/12/03 10:27:24;;;;;;;22.77;13.13;;;;;;;-3.12;88.53;102208.05;1893971;74;27952;-42
2020/12/03 10:30:01;;;;;;;16.55;9.53;;;;;;;-3.14;88.44;102217.70;1861638;75;21188;-42
2020/12/03 10:32:29;;;;;;;25.50;11.40;;;;;;;-3.13;88.22;102213.07;1869044;75;21507;-42
2020/12/03 10:34:57;;;;;;;22.55;12.78;;;;;;;-3.20;87.96;102219.49;1820295;75;21196;-42
2020/12/03 10:37:36;;;;;;;25.27;11.73;;;;;;;-3.21;88.00;102210.91;1834258;75;21124;-42
2020/12/03 10:40:18;;;;;;;26.42;15.58;;;;;;;-3.21;87.93;102207.45;1869269;75;21346;-42
2020/12/03 10:42:55;;;;;;;22.22;12.98;;;;;;;-3.19;88.01;102208.84;1867796;75;21147;-42
2020/12/03 10:45:27;;;;;;;17.27;11.25;;;;;;;-3.16;88.03;102208.66;1861166;75;21179;-43
2020/12/03 10:48:02;;;;;;;17.52;11.55;;;;;;;-3.16;87.96;102206.48;1826642;75;21178;-42
2020/12/03 10:50:53;;;;;;;20.32;12.70;;;;;;;-3.17;87.91;102210.72;1835993;75;21178;-47
2020/12/03 10:53:31;;;;;;;19.95;12.85;;;;;;;-3.15;87.96;102216.81;1822855;77;21606;-41
2020/12/03 10:56:05;;;;;;;20.48;12.35;;;;;;;-3.14;87.87;102217.31;1777735;78;21179;-41
2020/12/03 10:59:18;;;;;;;23.73;13.28;;;;;;;-3.16;87.80;102207.38;1798129;78;21167;-46
2020/12/03 11:01:42;;;;;;;21.97;12.90;;;;;;;-3.18;87.77;102211.91;1798150;78;21140;-42
2020/12/03 11:04:12;;;;;;;24.47;12.58;;;;;;;-3.19;87.71;102212.30;1813126;78;21175;-42
2020/12/03 11:06:40;;;;;;;19.50;12.90;;;;;;;-3.17;87.69;102211.12;1811957;78;21140;-42
2020/12/03 11:09:16;;;;;;;24.55;14.07;;;;;;;-3.14;87.64;102207.44;1827559;77;21191;-41
2020/12/03 11:11:44;;;;;;;20.97;12.80;;;;;;;-3.13;87.64;102204.98;1815409;77;21184;-41
2020/12/03 11:14:14;;;;;;;19.95;12.10;;;;;;;-3.10;87.50;102205.58;1796305;77;21286;-42
2020/12/03 11:17:01;;;;;;;21.02;12.75;;;;;;;-3.11;87.45;102202.13;1827557;77;21254;-42
2020/12/03 11:19:33;;;;;;;20.88;11.53;;;;;;;-3.07;87.45;102204.47;1812610;78;21135;-44
2020/12/03 11:22:20;;;;;;;28.45;17.10;;;;;;;-3.09;87.27;102203.12;1808298;78;21567;-42
2020/12/03 11:25:00;;;;;;;25.53;14.87;;;;;;;-3.09;87.18;102198.38;1799124;78;21342;-46
2020/12/03 11:27:28;;;;;;;26.12;15.98;;;;;;;-3.12;87.00;102198.17;1804464;78;21168;-47
2020/12/03 11:29:58;;;;;;;27.13;14.90;;;;;;;-3.14;86.89;102190.38;1810163;78;21194;-41
2020/12/03 11:32:26;;;;;;;19.20;12.13;;;;;;;-3.16;86.77;102184.29;1815456;78;21542;-41
2020/12/03 11:34:54;;;;;;;21.42;12.43;;;;;;;-3.16;86.71;102196.23;1822018;77;21346;-41
2020/12/03 11:37:24;;;;;;;17.07;9.88;;;;;;;-3.17;86.67;102206.87;1824063;77;21187;-41
2020/12/03 11:40:06;;;;;;;18.63;11.03;;;;;;;-3.16;86.68;102205.20;1828320;77;21195;-41
2020/12/03 11:42:52;;;;;;;20.63;11.10;;;;;;;-3.15;86.68;102208.27;1821340;77;21582;-41
2020/12/03 11:50:37;;;;;;;20.82;13.03;;;;;;;-3.12;86.58;102217.02;1827817;77;21651;-41
2020/12/03 11:53:07;;;;;;;23.25;12.68;;;;;;;-3.10;86.40;102218.41;1822770;77;21263;-39
2020/12/03 11:55:39;;;;;;;18.98;11.25;;;;;;;-3.09;86.28;102218.91;1824090;77;21242;-41
2020/12/03 11:58:08;;;;;;;21.33;11.55;;;;;;;-3.08;86.28;102223.21;1824575;77;21306;-41
2020/12/03 12:00:38;;;;;;;22.02;12.23;;;;;;;-3.02;86.34;102223.20;1825156;77;21199;-41
2020/12/03 12:03:10;;;;;;;19.12;11.68;;;;;;;-2.99;86.32;102215.71;1826729;77;21214;-46
2020/12/03 12:10:53;;;;;;;19.17;10.13;;;;;;;-2.99;86.11;102218.27;1809889;77;21172;-42
2020/12/03 12:13:20;;;;;;;19.60;11.25;;;;;;;-2.99;85.84;102219.55;1764624;80;21324;-38
2020/12/03 12:15:50;;;;;;;19.75;11.68;;;;;;;-2.98;85.81;102214.92;1825601;77;21175;-41
2020/12/03 12:18:20;;;;;;;22.02;13.03;;;;;;;-2.94;85.75;102214.30;1811954;78;21201;-41